Terminal Aerodrome Forecast
Issued by NWS Wilmington, OH

Current Version | Previous Version | Text Only | Print | Product List | Glossary Off
Versions: 1 2 3 4 5 6 7 8 9 10 11 12 13 14 15 16 17 18 19 20 21 22 23

835
FTUS41 KILN 191254 AAA
TAFDAY
TAF AMD
KDAY 191254Z 1913/2012 19010G22KT P6SM VCTS OVC012CB
      TEMPO 1913/1915 2SM -TSRA OVC008CB
     FM191500 21015G26KT P6SM VCSH OVC012
     FM192100 21015G26KT P6SM VCSH BKN025
     FM200000 20012G20KT P6SM VCSH BKN035
     FM200300 20012KT P6SM SCT080 BKN250
     FM200900 20014G21KT P6SM BKN025=

USA.gov is the U.S. government's official web portal to all federal, state and local government web resources and services.